createdAt,value
2018-09-28T00:00:09.703Z,89.62
2018-09-28T00:02:39.193Z,89.64
2018-09-28T00:05:08.543Z,90.49
2018-09-28T00:07:38.000Z,90.35
2018-09-28T00:10:07.736Z,89.97
2018-09-28T00:12:37.227Z,90.73
2018-09-28T00:15:06.716Z,90.11
2018-09-28T00:17:36.098Z,89.39
2018-09-28T00:20:05.728Z,88.58
2018-09-28T00:22:35.134Z,88.40
2018-09-28T00:25:04.503Z,88.67
2018-09-28T00:27:33.882Z,88.54
2018-09-28T00:30:03.352Z,88.84
2018-09-28T00:32:39.320Z,89.05
2018-09-28T00:35:08.783Z,89.51
2018-09-28T00:37:38.217Z,89.90
2018-09-28T00:40:07.718Z,90.09
2018-09-28T00:42:37.230Z,90.67
2018-09-28T00:45:06.736Z,91.42
2018-09-28T00:47:36.362Z,90.57
2018-09-28T00:50:07.495Z,91.32
2018-09-28T00:52:36.891Z,90.57
2018-09-28T00:55:06.365Z,91.11
2018-09-28T00:57:35.801Z,90.83
2018-09-28T01:00:05.203Z,90.86
2018-09-28T01:02:34.707Z,90.33
2018-09-28T01:05:04.215Z,90.30
2018-09-28T01:07:33.620Z,89.79
2018-09-28T01:10:03.029Z,89.99
2018-09-28T01:12:32.441Z,89.45
2018-09-28T01:15:01.851Z,89.74
2018-09-28T01:17:31.236Z,90.75
2018-09-28T01:20:00.637Z,90.12
2018-09-28T01:22:30.866Z,90.67
2018-09-28T01:25:00.369Z,91.16
2018-09-28T01:27:29.751Z,91.55
2018-09-28T01:29:59.172Z,91.23
2018-09-28T01:32:28.575Z,91.55
2018-09-28T01:34:58.032Z,91.73
2018-09-28T01:37:27.590Z,92.17
2018-09-28T01:39:56.991Z,91.79
2018-09-28T01:42:26.398Z,91.83
2018-09-28T01:44:55.788Z,91.40
2018-09-28T01:47:25.307Z,91.05
2018-09-28T01:49:54.717Z,90.88
2018-09-28T01:52:24.116Z,91.34
2018-09-28T01:54:53.484Z,91.30
2018-09-28T01:57:22.843Z,92.01
2018-09-28T01:59:52.212Z,91.59
2018-09-28T02:02:21.631Z,92.58
2018-09-28T02:04:51.406Z,92.55
2018-09-28T02:07:20.823Z,92.39
2018-09-28T02:09:50.281Z,92.76
2018-09-28T02:12:19.797Z,92.81
2018-09-28T02:14:49.238Z,92.84
2018-09-28T02:17:18.613Z,93.73
2018-09-28T02:19:48.148Z,93.41
2018-09-28T02:22:17.583Z,93.48
2018-09-28T02:24:46.951Z,92.87
2018-09-28T02:27:16.313Z,93.04
2018-09-28T02:29:46.587Z,93.33
2018-09-28T02:32:15.977Z,93.23
2018-09-28T02:34:45.375Z,92.52
2018-09-28T02:37:14.792Z,92.87
2018-09-28T02:39:44.297Z,92.80
2018-09-28T02:42:14.215Z,92.29
2018-09-28T02:44:43.637Z,92.18
2018-09-28T02:47:13.041Z,91.97
2018-09-28T02:49:42.429Z,92.01
2018-09-28T02:52:11.818Z,92.66
2018-09-28T02:54:41.167Z,93.03
2018-09-28T02:57:10.845Z,93.25
2018-09-28T02:59:40.293Z,92.60
2018-09-28T03:02:09.675Z,92.45
2018-09-28T03:04:39.058Z,92.20
2018-09-28T03:07:10.111Z,92.18
2018-09-28T03:09:39.500Z,92.40
2018-09-28T03:12:08.898Z,92.15
2018-09-28T03:14:38.227Z,92.59
2018-09-28T03:17:07.632Z,92.10
2018-09-28T03:19:36.992Z,92.38
2018-09-28T03:22:06.521Z,92.48
2018-09-28T03:24:35.896Z,92.78
2018-09-28T03:27:05.327Z,92.49
2018-09-28T03:29:34.663Z,93.24
2018-09-28T03:32:04.032Z,93.54
2018-09-28T03:34:33.410Z,93.71
2018-09-28T03:37:02.763Z,94.21
2018-09-28T03:39:32.241Z,93.47
2018-09-28T03:42:01.586Z,93.78
2018-09-28T03:44:31.532Z,93.18
2018-09-28T03:47:01.228Z,93.49
2018-09-28T03:49:30.593Z,92.65
2018-09-28T03:52:00.081Z,93.75
2018-09-28T03:54:29.612Z,93.19
2018-09-28T03:56:58.948Z,93.25
2018-09-28T03:59:28.285Z,93.12
2018-09-28T04:01:57.644Z,93.01
2018-09-28T04:04:26.996Z,93.86
2018-09-28T04:06:56.404Z,93.65
2018-09-28T04:09:25.804Z,92.59
2018-09-28T04:11:55.312Z,93.09
2018-09-28T04:14:24.816Z,93.83
2018-09-28T04:16:54.166Z,93.64
2018-09-28T04:19:23.592Z,93.38
2018-09-28T04:21:58.516Z,94.12
2018-09-28T04:24:28.394Z,93.45
2018-09-28T04:26:57.907Z,92.93
2018-09-28T04:29:27.399Z,92.97
2018-09-28T04:31:56.905Z,93.17
2018-09-28T04:34:26.328Z,93.31
2018-09-28T04:36:55.804Z,93.54
2018-09-28T04:39:25.175Z,93.42
2018-09-28T04:41:54.518Z,93.99
2018-09-28T04:44:23.874Z,93.74
2018-09-28T04:46:53.338Z,93.49
2018-09-28T04:49:22.821Z,94.10
2018-09-28T04:51:52.288Z,93.98
2018-09-28T04:54:21.726Z,94.69
2018-09-28T04:56:51.126Z,94.92
2018-09-28T04:59:20.476Z,96.11
2018-09-28T05:01:50.083Z,96.13
2018-09-28T05:04:19.443Z,96.84
2018-09-28T05:06:48.814Z,97.84
2018-09-28T05:09:18.164Z,97.50
2018-09-28T05:11:48.492Z,97.73
2018-09-28T05:14:17.877Z,98.31
2018-09-28T05:16:47.330Z,98.34
2018-09-28T05:19:16.673Z,97.69
2018-09-28T05:21:46.031Z,97.32
2018-09-28T05:24:16.323Z,97.17
2018-09-28T05:26:45.659Z,96.69
2018-09-28T05:29:15.040Z,96.54
2018-09-28T05:31:44.548Z,96.16
2018-09-28T05:34:13.914Z,95.42
2018-09-28T05:36:43.355Z,95.37
2018-09-28T05:39:12.713Z,94.45
2018-09-28T05:41:42.060Z,94.66
2018-09-28T05:44:11.648Z,93.72
2018-09-28T05:46:41.053Z,92.38
2018-09-28T05:49:10.456Z,92.86
2018-09-28T05:51:39.839Z,91.65
2018-09-28T05:54:09.469Z,91.07
2018-09-28T05:56:38.870Z,90.81
2018-09-28T05:59:13.397Z,90.44
2018-09-28T06:01:47.796Z,90.73
2018-09-28T06:04:22.537Z,90.08
2018-09-28T06:06:51.951Z,89.63
2018-09-28T06:09:21.299Z,90.12
2018-09-28T06:11:50.731Z,90.28
2018-09-28T06:14:20.093Z,91.03
2018-09-28T06:16:49.462Z,91.23
2018-09-28T06:19:18.820Z,91.76
2018-09-28T06:21:48.220Z,92.59
2018-09-28T06:24:17.627Z,93.17
2018-09-28T06:26:46.939Z,93.74
2018-09-28T06:29:16.290Z,94.22
2018-09-28T06:31:45.774Z,94.51
2018-09-28T06:34:15.170Z,94.58
2018-09-28T06:36:44.671Z,95.21
2018-09-28T06:39:14.043Z,96.92
2018-09-28T06:41:43.463Z,97.46
2018-09-28T06:44:12.871Z,98.01
2018-09-28T06:46:42.230Z,98.53
2018-09-28T06:49:11.634Z,99.50
2018-09-28T06:51:41.056Z,99.52
2018-09-28T06:54:10.643Z,99.34
2018-09-28T06:56:39.995Z,99.78
2018-09-28T06:59:09.374Z,100.00
2018-09-28T07:01:38.760Z,100.00
2018-09-28T07:04:08.340Z,100.00
2018-09-28T07:06:37.843Z,100.00
2018-09-28T07:09:10.932Z,100.00
2018-09-28T07:11:40.571Z,100.00
2018-09-28T07:14:10.565Z,100.00
2018-09-28T07:16:42.385Z,100.00
2018-09-28T07:19:11.950Z,100.00
2018-09-28T07:21:41.335Z,100.00
2018-09-28T07:24:10.780Z,100.00
2018-09-28T07:26:40.154Z,100.00
2018-09-28T07:29:09.763Z,99.76
2018-09-28T07:31:39.123Z,100.00
2018-09-28T07:34:08.524Z,100.00
2018-09-28T07:36:38.082Z,100.00
2018-09-28T07:39:10.950Z,100.00
2018-09-28T07:41:40.475Z,99.47
2018-09-28T07:44:10.257Z,100.00
2018-09-28T07:46:39.625Z,99.58
2018-09-28T07:49:09.093Z,99.67
2018-09-28T07:51:38.692Z,98.90
2018-09-28T07:56:50.875Z,99.15
2018-09-28T07:59:20.321Z,99.64
2018-09-28T08:01:49.691Z,99.28
2018-09-28T08:04:19.110Z,99.13
2018-09-28T08:06:48.512Z,99.59
2018-09-28T08:09:17.931Z,99.27
2018-09-28T08:11:47.436Z,99.27
2018-09-28T08:14:16.838Z,99.25
2018-09-28T08:16:46.211Z,98.96
2018-09-28T08:19:15.842Z,98.99
2018-09-28T08:21:45.297Z,98.38
2018-09-28T08:24:14.658Z,98.39
2018-09-28T08:26:44.051Z,98.37
2018-09-28T08:29:13.675Z,98.15
2018-09-28T08:31:43.054Z,98.34
2018-09-28T08:34:12.402Z,97.56
2018-09-28T08:36:41.962Z,97.09
2018-09-28T08:39:11.355Z,96.85
2018-09-28T08:41:40.771Z,96.00
2018-09-28T08:44:10.151Z,95.71
2018-09-28T08:46:39.499Z,94.94
2018-09-28T08:49:08.907Z,95.27
2018-09-28T08:51:38.612Z,95.61
2018-09-28T08:54:09.777Z,94.64
2018-09-28T08:56:39.366Z,94.42
2018-09-28T08:59:08.780Z,93.42
2018-09-28T09:01:38.160Z,93.66
2018-09-28T09:04:08.090Z,93.28
2018-09-28T09:06:37.872Z,93.28
2018-09-28T09:09:11.253Z,92.44
2018-09-28T09:11:40.731Z,92.72
2018-09-28T09:14:10.213Z,91.39
2018-09-28T09:16:39.614Z,90.88
2018-09-28T09:19:08.979Z,90.44
2018-09-28T09:21:38.421Z,90.01
2018-09-28T09:24:08.088Z,89.32
2018-09-28T09:26:37.449Z,88.68
2018-09-28T09:29:07.020Z,88.43
2018-09-28T09:31:36.432Z,88.82
2018-09-28T09:34:05.798Z,87.59
2018-09-28T09:36:35.300Z,86.68
2018-09-28T09:39:06.115Z,86.57
2018-09-28T09:41:36.308Z,86.55
2018-09-28T09:44:05.787Z,86.02
2018-09-28T09:46:35.226Z,85.65
2018-09-28T09:49:07.723Z,86.65
2018-09-28T09:51:37.207Z,85.62
2018-09-28T09:54:06.611Z,87.00
2018-09-28T09:56:36.013Z,86.06
2018-09-28T09:59:05.607Z,85.20
2018-09-28T10:02:39.453Z,84.12
2018-09-28T10:05:09.026Z,82.82
2018-09-28T10:07:38.452Z,81.74
2018-09-28T10:10:07.816Z,81.25
2018-09-28T10:12:37.296Z,79.53
2018-09-28T10:15:06.969Z,79.78
2018-09-28T10:17:36.368Z,79.27
2018-09-28T10:20:05.878Z,77.86
2018-09-28T10:22:35.231Z,78.00
2018-09-28T10:25:04.679Z,78.04
2018-09-28T10:27:34.064Z,77.97
2018-09-28T10:30:03.479Z,78.84
2018-09-28T10:32:32.898Z,78.10
2018-09-28T10:35:02.314Z,78.08
2018-09-28T10:37:31.703Z,77.59
2018-09-28T10:40:01.163Z,77.61
2018-09-28T10:42:30.720Z,76.85
2018-09-28T10:45:01.809Z,76.69
2018-09-28T10:47:31.321Z,76.59
2018-09-28T10:50:00.813Z,76.34
2018-09-28T10:52:30.460Z,75.35
2018-09-28T10:58:00.275Z,75.63
2018-09-28T11:00:29.763Z,73.64
2018-09-28T11:02:59.124Z,73.34
2018-09-28T11:05:28.542Z,72.67
2018-09-28T11:07:57.953Z,73.77
2018-09-28T11:10:27.415Z,72.22
2018-09-28T11:12:56.844Z,72.71
2018-09-28T11:15:26.319Z,71.94
2018-09-28T11:17:55.663Z,72.16
2018-09-28T11:20:25.308Z,72.56
2018-09-28T11:22:54.956Z,72.62
2018-09-28T11:25:24.374Z,72.26
2018-09-28T11:27:53.740Z,72.78
2018-09-28T11:30:23.202Z,71.99
2018-09-28T11:32:52.708Z,72.46
2018-09-28T11:35:22.112Z,73.09
2018-09-28T11:37:51.874Z,74.03
2018-09-28T11:40:21.308Z,76.13
2018-09-28T11:42:50.804Z,78.40
2018-09-28T11:45:20.226Z,80.02
2018-09-28T11:47:49.567Z,81.32
2018-09-28T11:50:19.851Z,82.44
2018-09-28T11:52:49.249Z,83.70
2018-09-28T11:55:18.714Z,83.16
2018-09-28T11:57:48.175Z,82.88
2018-09-28T12:00:17.555Z,83.58
2018-09-28T12:02:46.999Z,82.21
2018-09-28T12:05:16.491Z,81.02
2018-09-28T12:07:45.977Z,80.57
2018-09-28T12:10:15.422Z,79.68
2018-09-28T12:12:44.896Z,77.31
2018-09-28T12:15:14.245Z,77.40
2018-09-28T12:17:43.594Z,75.18
2018-09-28T12:20:13.014Z,75.34
2018-09-28T12:22:42.382Z,74.41
2018-09-28T12:25:11.796Z,74.85
2018-09-28T12:27:42.200Z,73.10
2018-09-28T12:30:11.558Z,72.47
2018-09-28T12:32:40.840Z,70.96
2018-09-28T12:35:10.216Z,72.06
2018-09-28T12:37:39.586Z,71.00
2018-09-28T12:40:08.984Z,70.81
2018-09-28T12:42:38.409Z,69.80
2018-09-28T12:45:07.924Z,69.89
2018-09-28T12:47:37.203Z,70.12
2018-09-28T12:50:06.672Z,69.34
2018-09-28T12:52:36.069Z,67.77
2018-09-28T12:55:05.574Z,68.36
2018-09-28T12:57:34.928Z,68.29
2018-09-28T13:00:04.591Z,65.96
2018-09-28T13:02:34.007Z,66.34
2018-09-28T13:05:03.466Z,65.77
2018-09-28T13:07:32.830Z,65.76
2018-09-28T13:10:02.203Z,66.42
2018-09-28T13:12:31.712Z,65.99
2018-09-28T13:15:01.307Z,66.23
2018-09-28T13:17:30.602Z,64.48
2018-09-28T13:20:00.436Z,65.00
2018-09-28T13:22:31.676Z,65.53
2018-09-28T13:25:01.091Z,64.57
2018-09-28T13:27:30.440Z,62.45
2018-09-28T13:30:00.196Z,62.20
2018-09-28T13:32:29.620Z,62.56
2018-09-28T13:34:58.960Z,61.23
2018-09-28T13:37:28.339Z,61.54
2018-09-28T13:39:57.735Z,61.40
2018-09-28T13:42:27.260Z,59.74
2018-09-28T13:44:56.644Z,59.80
2018-09-28T13:47:26.024Z,59.71
2018-09-28T13:49:55.426Z,60.55
2018-09-28T13:52:24.801Z,59.53
2018-09-28T13:54:54.311Z,60.23
2018-09-28T13:57:23.739Z,60.15
2018-09-28T13:59:53.145Z,60.60
2018-09-28T14:02:22.572Z,61.10
2018-09-28T14:04:52.161Z,60.21
2018-09-28T14:07:21.652Z,56.53
2018-09-28T14:09:51.022Z,57.91
2018-09-28T14:12:20.465Z,57.73
2018-09-28T14:14:49.823Z,56.14
2018-09-28T14:17:19.163Z,54.56
2018-09-28T14:19:48.843Z,54.45
2018-09-28T14:22:18.288Z,51.88
2018-09-28T14:24:47.722Z,51.07
2018-09-28T14:27:17.063Z,50.48
2018-09-28T14:29:46.455Z,50.65
2018-09-28T14:32:15.911Z,50.92
2018-09-28T14:34:45.401Z,51.37
2018-09-28T14:37:15.123Z,51.29
2018-09-28T14:39:44.495Z,53.07
2018-09-28T14:42:13.903Z,50.58
2018-09-28T14:44:43.324Z,51.43
2018-09-28T14:47:12.686Z,49.70
2018-09-28T14:49:42.053Z,49.94
2018-09-28T14:52:11.408Z,49.72
2018-09-28T14:54:40.846Z,48.52
2018-09-28T14:57:10.246Z,47.89
2018-09-28T14:59:39.606Z,47.28
2018-09-28T15:02:09.112Z,47.47
2018-09-28T15:04:38.440Z,46.91
2018-09-28T15:07:08.169Z,46.56
2018-09-28T15:09:37.576Z,48.00
2018-09-28T15:12:07.089Z,47.08
2018-09-28T15:14:36.503Z,46.79
2018-09-28T15:17:05.963Z,47.54
2018-09-28T15:19:35.342Z,48.63
2018-09-28T15:22:04.794Z,47.94
2018-09-28T15:24:34.156Z,46.63
2018-09-28T15:27:04.032Z,47.63
2018-09-28T15:29:34.749Z,47.89
2018-09-28T15:32:04.160Z,47.99
2018-09-28T15:34:33.505Z,48.52
2018-09-28T15:37:02.858Z,48.48
2018-09-28T15:39:32.266Z,48.98
2018-09-28T15:42:01.632Z,49.29
2018-09-28T15:44:32.029Z,50.74
2018-09-28T15:47:01.470Z,50.18
2018-09-28T15:49:30.882Z,50.68
2018-09-28T15:52:00.231Z,51.35
2018-09-28T15:54:29.610Z,51.01
2018-09-28T15:56:59.121Z,51.20
2018-09-28T15:59:28.527Z,51.45
2018-09-28T16:01:57.955Z,52.20
2018-09-28T16:04:27.432Z,51.13
2018-09-28T16:06:56.919Z,51.06
2018-09-28T16:09:26.289Z,51.61
2018-09-28T16:11:55.682Z,51.56
2018-09-28T16:14:25.062Z,51.42
2018-09-28T16:16:54.494Z,51.70
2018-09-28T16:19:23.960Z,51.43
2018-09-28T16:21:53.368Z,52.04
2018-09-28T16:24:22.752Z,50.42
2018-09-28T16:26:52.272Z,50.16
2018-09-28T16:29:21.707Z,49.38
2018-09-28T16:31:51.119Z,49.17
2018-09-28T16:34:20.819Z,49.92
2018-09-28T16:36:50.303Z,49.63
2018-09-28T16:39:19.699Z,49.64
2018-09-28T16:41:49.830Z,50.60
2018-09-28T16:44:21.075Z,50.97
2018-09-28T16:46:50.491Z,51.01
2018-09-28T16:49:19.871Z,52.27
2018-09-28T16:51:49.258Z,52.37
2018-09-28T16:54:19.901Z,53.39
2018-09-28T16:56:49.320Z,53.27
2018-09-28T16:59:18.735Z,54.10
2018-09-28T17:01:48.276Z,54.68
2018-09-28T17:04:18.172Z,54.69
2018-09-28T17:06:47.531Z,56.70
2018-09-28T17:09:16.947Z,56.15
2018-09-28T17:11:46.397Z,57.29
2018-09-28T17:14:15.803Z,56.32
2018-09-28T17:16:47.022Z,56.43
2018-09-28T17:19:16.969Z,57.40
2018-09-28T17:21:47.141Z,57.20
2018-09-28T17:24:16.579Z,57.53
2018-09-28T17:26:46.100Z,58.77
2018-09-28T17:29:15.596Z,58.25
2018-09-28T17:31:45.006Z,58.93
2018-09-28T17:34:14.775Z,58.79
2018-09-28T17:36:44.388Z,59.50
2018-09-28T17:39:14.090Z,59.71
2018-09-28T17:41:43.474Z,59.27
2018-09-28T17:44:13.024Z,59.52
2018-09-28T17:46:42.511Z,60.31
2018-09-28T17:49:12.090Z,59.46
2018-09-28T17:51:41.546Z,59.82
2018-09-28T17:54:10.999Z,59.09
2018-09-28T17:56:40.410Z,60.21
2018-09-28T17:59:11.177Z,59.77
2018-09-28T18:01:40.550Z,60.72
2018-09-28T18:04:10.207Z,60.59
2018-09-28T18:06:39.611Z,61.14
2018-09-28T18:09:12.194Z,61.55
2018-09-28T18:11:41.780Z,61.45
2018-09-28T18:14:11.351Z,62.38
2018-09-28T18:16:40.755Z,62.10
2018-09-28T18:19:10.313Z,62.19
2018-09-28T18:21:39.862Z,62.25
2018-09-28T18:24:09.347Z,62.96
2018-09-28T18:26:40.124Z,63.20
2018-09-28T18:29:09.504Z,62.93
2018-09-28T18:31:39.003Z,63.97
2018-09-28T18:34:08.431Z,62.83
2018-09-28T18:36:37.928Z,63.63
2018-09-28T18:39:09.716Z,64.00
2018-09-28T18:41:39.272Z,63.91
2018-09-28T18:44:08.643Z,62.79
2018-09-28T18:46:38.071Z,63.81
2018-09-28T18:49:07.611Z,63.02
2018-09-28T18:51:37.074Z,63.82
2018-09-28T18:54:06.654Z,62.97
2018-09-28T18:56:37.087Z,63.50
2018-09-28T18:59:08.453Z,63.10
2018-09-28T19:01:37.939Z,63.14
2018-09-28T19:04:07.694Z,63.75
2018-09-28T19:06:37.163Z,63.74
2018-09-28T19:09:11.132Z,63.80
2018-09-28T19:11:41.302Z,64.35
2018-09-28T19:14:10.947Z,64.60
2018-09-28T19:16:40.442Z,65.23
2018-09-28T19:19:10.506Z,64.56
2018-09-28T19:21:39.999Z,65.86
2018-09-28T19:24:09.434Z,65.78
2018-09-28T19:26:38.911Z,65.50
2018-09-28T19:29:08.356Z,65.67
2018-09-28T19:31:37.822Z,65.67
2018-09-28T19:34:07.379Z,65.77
2018-09-28T19:36:36.966Z,65.87
2018-09-28T19:39:09.179Z,67.19
2018-09-28T19:41:40.126Z,67.28
2018-09-28T19:44:10.033Z,67.70
2018-09-28T19:46:39.558Z,68.69
2018-09-28T19:49:09.068Z,68.94
2018-09-28T19:51:38.519Z,68.79
2018-09-28T19:54:08.171Z,68.63
2018-09-28T19:56:37.730Z,69.00
2018-09-28T19:59:07.522Z,69.11
2018-09-28T20:01:39.227Z,69.76
2018-09-28T20:04:08.750Z,69.82
2018-09-28T20:06:38.308Z,70.28
2018-09-28T20:09:10.443Z,70.18
2018-09-28T20:11:41.044Z,70.83
2018-09-28T20:14:10.777Z,71.21
2018-09-28T20:16:40.368Z,71.67
2018-09-28T20:19:09.892Z,71.49
2018-09-28T20:21:39.480Z,72.40
2018-09-28T20:24:09.231Z,73.43
2018-09-28T20:26:38.776Z,72.85
2018-09-28T20:29:08.804Z,73.12
2018-09-28T20:31:39.144Z,73.00
2018-09-28T20:34:08.585Z,73.42
2018-09-28T20:36:38.058Z,73.60
2018-09-28T20:39:12.480Z,74.46
2018-09-28T20:41:43.435Z,74.81
2018-09-28T20:44:12.936Z,75.81
2018-09-28T20:46:42.495Z,75.51
2018-09-28T20:49:13.004Z,76.27
2018-09-28T20:51:42.475Z,75.70
2018-09-28T20:54:11.861Z,76.13
2018-09-28T20:56:41.257Z,75.58
2018-09-28T20:59:10.779Z,76.09
2018-09-28T21:01:40.183Z,76.46
2018-09-28T21:04:09.986Z,77.16
2018-09-28T21:06:40.081Z,77.57
2018-09-28T21:09:10.633Z,77.28
2018-09-28T21:11:40.119Z,77.73
2018-09-28T21:14:09.673Z,77.58
2018-09-28T21:16:39.085Z,77.63
2018-09-28T21:19:08.822Z,78.08
2018-09-28T21:21:38.537Z,78.94
2018-09-28T21:24:08.593Z,77.75
2018-09-28T21:26:38.027Z,78.59
2018-09-28T21:29:07.908Z,79.28
2018-09-28T21:31:37.346Z,78.99
2018-09-28T21:34:06.743Z,79.06
2018-09-28T21:36:36.182Z,79.65
2018-09-28T21:39:08.318Z,79.63
2018-09-28T21:41:37.846Z,79.55
2018-09-28T21:44:07.959Z,79.73
2018-09-28T21:46:37.651Z,80.33
2018-09-28T21:49:07.195Z,80.48
2018-09-28T21:51:36.920Z,80.34
2018-09-28T21:54:06.527Z,80.06
2018-09-28T21:56:36.171Z,80.79
2018-09-28T21:59:05.687Z,80.77
2018-09-28T22:01:35.176Z,80.66
2018-09-28T22:04:04.583Z,80.32
2018-09-28T22:06:34.063Z,80.74
2018-09-28T22:09:04.615Z,80.90
2018-09-28T22:11:35.851Z,80.79
2018-09-28T22:14:05.539Z,81.28
2018-09-28T22:16:34.936Z,81.37
2018-09-28T22:19:04.985Z,81.51
2018-09-28T22:21:34.322Z,81.66
2018-09-28T22:24:03.696Z,82.17
2018-09-28T22:26:33.054Z,82.50
2018-09-28T22:29:02.492Z,82.91
2018-09-28T22:31:31.898Z,82.94
2018-09-28T22:34:01.508Z,82.72
2018-09-28T22:36:30.867Z,82.64
2018-09-28T22:39:00.312Z,82.87
2018-09-28T22:41:29.667Z,83.81
2018-09-28T22:43:59.027Z,83.93
2018-09-28T22:46:28.395Z,84.42
2018-09-28T22:48:57.827Z,84.67
2018-09-28T22:51:27.230Z,84.84
2018-09-28T22:53:56.618Z,84.15
2018-09-28T22:56:26.548Z,84.67
2018-09-28T22:58:56.873Z,85.01
2018-09-28T23:01:26.748Z,85.15
2018-09-28T23:03:56.118Z,85.51
2018-09-28T23:06:25.618Z,85.80
2018-09-28T23:08:54.991Z,85.37
2018-09-28T23:11:24.506Z,86.33
2018-09-28T23:13:54.036Z,85.87
2018-09-28T23:16:23.490Z,85.74
2018-09-28T23:18:54.785Z,86.52
2018-09-28T23:21:24.196Z,86.79
2018-09-28T23:23:53.976Z,85.50
2018-09-28T23:26:23.320Z,85.37
2018-09-28T23:28:52.690Z,85.64
2018-09-28T23:31:22.403Z,86.09
2018-09-28T23:33:51.819Z,85.96
2018-09-28T23:36:21.159Z,86.00
2018-09-28T23:38:51.093Z,86.70
2018-09-28T23:41:20.543Z,85.92
2018-09-28T23:43:49.948Z,86.14
2018-09-28T23:46:19.287Z,85.96
2018-09-28T23:48:48.740Z,86.14
2018-09-28T23:51:18.158Z,86.34
2018-09-28T23:53:47.675Z,86.28
2018-09-28T23:56:18.078Z,86.59
2018-09-28T23:58:47.480Z,86.46
